This is the latest recevied weather packets stored in our database for station/object Oberstadn. If no packets are shown the sender has not sent any weather packets the latest 10 day(s).
| Time | Temp. | Humidity | Pressure | Rain* | Wind** | Luminosity | Snow |
|---|---|---|---|---|---|---|---|
| 1777334529 | 5° C | 77% | 1018.2 hPa | 0 mm | - | - | - |
| 1777332730 | 5° C | 77% | 1018.3 hPa | 0 mm | - | - | - |
| 1777330929 | 5.56° C | 75% | 1018.2 hPa | 0 mm | - | - | - |
| 1777329129 | 6.11° C | 73% | 1018.5 hPa | 0 mm | - | - | - |
| 1777325530 | 10° C | 59% | 1018.8 hPa | 0 mm | - | - | - |
| 1777323730 | 11.11° C | 55% | 1018.9 hPa | 0 mm | - | - | - |
| 1777321930 | 11.67° C | 53% | 1018.9 hPa | 0 mm | - | - | - |
| 1777320129 | 12.22° C | 50% | 1018.9 hPa | 0 mm | - | - | - |
| 1777318340 | 13.33° C | 48% | 1019 hPa | 0 mm | - | - | - |
| 1777316531 | 14.44° C | 48% | 1018.8 hPa | 0 mm | - | - | - |
| 1777314729 | 16.11° C | 43% | 1018.4 hPa | 0 mm | - | - | - |
| 1777312929 | 17.22° C | 40% | 1018.2 hPa | 0 mm | - | - | - |
| 1777311131 | 17.78° C | 38% | 1018.4 hPa | 0 mm | - | - | - |
| 1777309331 | 18.33° C | 34% | 1018.5 hPa | 0 mm | - | - | - |
| 1777307530 | 18.89° C | 36% | 1018.8 hPa | 0 mm | - | - | - |
| 1777305731 | 19.44° C | 32% | 1018.7 hPa | 0 mm | - | - | - |
| 1777303931 | 20° C | 31% | 1018.7 hPa | 0 mm | - | - | - |
| 1777302132 | 20.56° C | 29% | 1018.8 hPa | 0 mm | - | - | - |
| 1777300330 | 20.56° C | 32% | 1019.3 hPa | 0 mm | - | - | - |
| 1777298531 | 20.56° C | 36% | 1019.5 hPa | 0 mm | - | - | - |
| 1777296731 | 20.56° C | 36% | 1020 hPa | 0 mm | - | - | - |
| 1777294933 | 20° C | 35% | 1020.5 hPa | 0 mm | - | - | - |
| 1777293131 | 19.44° C | 38% | 1020.6 hPa | 0 mm | - | - | - |
| 1777291330 | 19.44° C | 40% | 1020.9 hPa | 0 mm | - | - | - |
| 1777289531 | 19.44° C | 41% | 1021 hPa | 0 mm | - | - | - |
* Rain since midnight (hover to see other rain measurements)
** Current wind speed in m/s (hover to see current wind gust speed)